Time;durP1;ratioP1;P1;durP2;ratioP2;P2;SDS_P1;SDS_P2;PMS_P1;PMS_P2;Temp;Humidity;BMP_temperature;BMP_pressure;BME280_temperature;BME280_humidity;BME280_pressure;Samples;Min_cycle;Max_cycle;Signal;HPM_P1;HPM_P2
2021/06/23 00:02:15;;;;;;;7.07;5.72;;;16.10;99.90;;;16.49;100.00;95139.00;2163731;56;26581;-54
2021/06/23 00:05:01;;;;;;;7.30;6.12;;;16.10;99.90;;;16.44;100.00;95121.00;2172541;56;26925;-54
2021/06/23 00:07:48;;;;;;;6.55;5.95;;;16.10;99.90;;;16.45;100.00;95125.00;2174459;56;26875;-54
2021/06/23 00:10:34;;;;;;;6.10;5.60;;;16.10;99.90;;;16.46;100.00;95132.00;2388679;55;26538;-54
2021/06/23 00:13:22;;;;;;;6.40;5.57;;;16.10;99.90;;;16.47;100.00;95134.00;2184750;56;26808;-54
2021/06/23 00:16:10;;;;;;;8.18;6.60;;;16.10;99.90;;;16.63;100.00;95136.00;2393845;55;27414;-53
2021/06/23 00:18:56;;;;;;;11.70;7.43;;;16.10;99.90;;;16.48;100.00;95138.00;2171514;55;27285;-54
2021/06/23 00:21:43;;;;;;;6.95;6.15;;;16.10;99.90;;;16.53;100.00;95143.00;2184795;54;27205;-53
2021/06/23 00:27:26;;;;;;;5.62;5.07;;;16.00;99.90;;;16.46;100.00;95117.00;2396423;55;34584;-53
2021/06/23 00:30:16;;;;;;;4.62;4.20;;;16.00;99.90;;;16.46;100.00;95151.00;2165022;56;26745;-53
2021/06/23 00:33:09;;;;;;;4.93;3.83;;;16.00;99.90;;;16.43;100.00;95146.00;2440763;54;27165;-53
2021/06/23 00:38:53;;;;;;;3.53;3.22;;;16.00;99.90;;;16.40;100.00;95117.00;2409199;54;34252;-53
2021/06/23 00:41:39;;;;;;;5.30;3.85;;;15.90;99.90;;;16.27;100.00;95141.00;2163027;55;26828;-53
2021/06/23 00:44:26;;;;;;;4.65;3.95;;;15.90;99.90;;;16.22;100.00;95155.00;2354161;56;27358;-53
2021/06/23 00:50:14;;;;;;;4.80;3.90;;;15.90;99.90;;;16.51;100.00;95141.00;2436093;53;33599;-53
2021/06/23 00:53:01;;;;;;;3.83;3.53;;;15.90;99.90;;;16.32;100.00;95151.00;2219493;54;27028;-53
2021/06/23 00:55:51;;;;;;;5.07;3.85;;;15.80;99.90;;;16.26;100.00;95151.00;2440725;54;26936;-53
2021/06/23 00:58:39;;;;;;;4.47;4.05;;;15.90;99.90;;;16.30;100.00;95141.00;2211214;55;26996;-53
2021/06/23 01:01:26;;;;;;;5.62;3.75;;;15.90;99.90;;;16.34;100.00;95139.00;2433539;55;26725;-53
2021/06/23 01:07:08;;;;;;;5.72;4.40;;;15.90;99.90;;;16.45;100.00;95125.00;2407950;55;33833;-53
2021/06/23 01:09:56;;;;;;;5.28;4.60;;;15.90;99.90;;;16.34;100.00;95145.00;2406016;55;26829;-53
2021/06/23 01:13:01;;;;;;;4.87;4.37;;;15.90;99.90;;;16.35;100.00;95146.00;2163790;56;27164;-52
2021/06/23 01:15:49;;;;;;;4.65;4.22;;;15.80;99.90;;;16.23;100.00;95146.00;2160948;56;26774;-53
2021/06/23 01:18:38;;;;;;;5.15;4.72;;;15.80;99.90;;;16.35;100.00;95143.00;2374767;56;26710;-53
2021/06/23 01:21:26;;;;;;;4.80;4.30;;;15.80;99.90;;;16.19;100.00;95132.00;2160509;56;26690;-53
2021/06/23 01:24:12;;;;;;;5.55;4.40;;;15.80;99.90;;;16.15;100.00;95141.00;2371856;56;27460;-53
2021/06/23 01:29:54;;;;;;;5.40;4.93;;;15.70;99.90;;;16.19;100.00;95115.00;2428757;54;34425;-53
2021/06/23 01:32:41;;;;;;;5.50;5.00;;;15.70;99.90;;;16.14;100.00;95136.00;2241610;55;26928;-53
2021/06/23 01:35:30;;;;;;;5.25;4.75;;;15.70;99.90;;;16.13;100.00;95140.00;2486980;54;27379;-53
2021/06/23 01:38:16;;;;;;;5.30;4.80;;;15.70;99.90;;;16.16;100.00;95135.00;2267149;55;27168;-53
2021/06/23 01:41:03;;;;;;;5.32;4.82;;;15.70;99.90;;;16.11;100.00;95139.00;2500417;54;26932;-53
2021/06/23 01:43:49;;;;;;;5.62;4.97;;;15.70;99.90;;;16.09;100.00;95134.00;2266914;54;26113;-53
2021/06/23 01:46:35;;;;;;;6.10;4.80;;;15.60;99.90;;;15.98;100.00;95135.00;2498032;53;26648;-52
2021/06/23 01:49:23;;;;;;;5.30;4.80;;;15.60;99.90;;;15.98;100.00;95137.00;2237676;54;26739;-53
2021/06/23 01:52:10;;;;;;;5.00;4.50;;;15.50;99.90;;;15.96;100.00;95142.00;2222182;54;26656;-53
2021/06/23 01:54:56;;;;;;;5.35;4.85;;;15.60;99.90;;;15.91;100.00;95134.00;2449818;54;27204;-52
2021/06/23 01:57:43;;;;;;;6.12;5.50;;;15.50;99.90;;;15.87;100.00;95135.00;2222251;55;27214;-53
2021/06/23 02:04:11;;;;;;;5.30;4.80;;;15.40;99.90;;;15.85;100.00;95113.00;2382520;55;33810;-53
2021/06/23 02:07:16;;;;;;;5.20;4.65;;;15.40;99.90;;;15.75;100.00;95131.00;2418704;55;27273;-53
2021/06/23 02:10:19;;;;;;;4.90;4.50;;;15.40;99.90;;;15.70;100.00;95132.00;2222316;54;26829;-53
2021/06/23 02:17:07;;;;;;;5.97;5.07;;;15.40;99.90;;;16.00;100.00;95114.00;2411855;55;34500;-53
2021/06/23 02:19:55;;;;;;;4.97;4.57;;;15.40;99.90;;;15.80;100.00;95140.00;2185535;56;26699;-53
2021/06/23 02:22:45;;;;;;;5.12;4.65;;;15.30;99.90;;;15.68;100.00;95129.00;2403372;55;26646;-53
2021/06/23 02:25:31;;;;;;;6.37;5.78;;;15.30;99.90;;;15.64;100.00;95121.00;2402621;56;27145;-53
2021/06/23 02:28:19;;;;;;;6.57;5.68;;;15.20;99.90;;;15.57;100.00;95123.00;2183537;56;26635;-52
2021/06/23 02:31:05;;;;;;;6.07;5.47;;;15.10;99.90;;;15.40;100.00;95122.00;2185749;56;26700;-53
2021/06/23 02:33:56;;;;;;;6.33;5.73;;;15.00;99.90;;;15.29;100.00;95120.00;2185365;56;27211;-53
2021/06/23 02:36:43;;;;;;;5.97;5.47;;;15.00;99.90;;;15.30;100.00;95130.00;2185865;56;26846;-53
2021/06/23 02:39:30;;;;;;;6.30;5.80;;;14.90;99.90;;;15.30;100.00;95135.00;2157667;56;26706;-52
2021/06/23 02:45:15;;;;;;;6.97;6.30;;;15.00;99.90;;;15.44;100.00;95110.00;2456970;54;33799;-53
2021/06/23 02:48:02;;;;;;;6.62;6.03;;;15.00;99.90;;;15.37;100.00;95130.00;2444803;55;27001;-53
2021/06/23 02:53:57;;;;;;;7.90;6.43;;;15.00;99.90;;;15.40;100.00;95117.00;2419071;55;33679;-53
2021/06/23 02:59:45;;;;;;;6.03;5.53;;;14.90;99.90;;;15.35;100.00;95122.00;2438772;54;34309;-53
2021/06/23 03:02:32;;;;;;;6.53;5.93;;;14.90;99.90;;;15.33;100.00;95142.00;2218535;55;27438;-53
2021/06/23 03:14:10;;;;;;;7.75;5.18;;;14.80;99.90;;;15.32;100.00;95142.00;2430499;54;33088;-53
2021/06/23 03:16:58;;;;;;;6.68;5.03;;;14.90;99.90;;;15.29;100.00;95160.00;2218414;54;27454;-53
2021/06/23 03:19:44;;;;;;;5.35;4.87;;;14.90;99.90;;;15.33;100.00;95163.00;2445782;54;27365;-52
2021/06/23 03:22:31;;;;;;;5.97;5.20;;;14.90;99.90;;;15.26;100.00;95163.00;2214758;54;26816;-52
2021/06/23 03:28:15;;;;;;;6.80;4.50;;;14.90;99.90;;;15.46;100.00;95154.00;2392522;55;33903;-52
2021/06/23 03:31:01;;;;;;;5.43;4.90;;;14.90;99.90;;;15.32;100.00;95162.00;2158893;57;27519;-53
2021/06/23 03:33:47;;;;;;;5.53;5.03;;;14.80;99.90;;;15.22;100.00;95169.00;2158510;57;26882;-52
2021/06/23 03:36:34;;;;;;;6.57;4.40;;;14.80;99.90;;;15.15;100.00;95178.00;2372139;56;26773;-52
2021/06/23 03:39:20;;;;;;;5.32;4.80;;;14.80;99.90;;;15.20;100.00;95185.00;2159178;57;27275;-52
2021/06/23 03:42:09;;;;;;;5.05;4.65;;;14.80;99.90;;;15.23;100.00;95190.00;2371145;56;26749;-52
2021/06/23 03:44:55;;;;;;;5.28;4.40;;;14.90;99.90;;;15.21;100.00;95182.00;2159938;57;26949;-53
2021/06/23 03:47:43;;;;;;;5.10;4.60;;;14.80;99.90;;;15.22;100.00;95189.00;2372987;56;27426;-52
2021/06/23 03:53:25;;;;;;;5.55;4.93;;;14.80;99.90;;;15.36;100.00;95168.00;2404238;55;34234;-52
2021/06/23 03:56:11;;;;;;;5.07;4.68;;;14.90;99.90;;;15.33;100.00;95185.00;2157503;56;26691;-53
2021/06/23 03:58:57;;;;;;;7.32;5.80;;;14.80;99.90;;;15.30;100.00;95193.00;2366766;56;26849;-52
2021/06/23 04:01:44;;;;;;;7.53;6.80;;;14.90;99.90;;;15.36;100.00;95196.00;2177240;56;27347;-52
2021/06/23 04:04:30;;;;;;;7.78;6.93;;;14.90;99.90;;;15.34;100.00;95200.00;2400713;56;26894;-53
2021/06/23 04:07:17;;;;;;;8.77;6.93;;;14.90;99.90;;;15.35;100.00;95202.00;2191192;55;26173;-53
2021/06/23 04:10:04;;;;;;;8.10;6.70;;;15.00;99.90;;;15.52;100.00;95206.00;2408628;55;27243;-53
2021/06/23 04:15:46;;;;;;;7.30;6.65;;;15.00;99.90;;;15.58;100.00;95181.00;2373959;55;33897;-52
2021/06/23 04:18:33;;;;;;;6.18;5.65;;;15.10;99.90;;;15.56;100.00;95204.00;2168356;57;26691;-52
2021/06/23 04:21:20;;;;;;;6.70;6.10;;;15.20;99.90;;;15.66;100.00;95204.00;2378887;55;26718;-52
2021/06/23 04:27:06;;;;;;;7.15;6.45;;;15.30;99.90;;;15.83;100.00;95187.00;2379717;55;34264;-52
2021/06/23 04:29:53;;;;;;;6.55;5.95;;;15.40;99.90;;;15.86;100.00;95208.00;2173100;56;26704;-52
2021/06/23 04:32:40;;;;;;;6.18;5.65;;;15.50;99.90;;;15.92;100.00;95199.00;2369167;56;27061;-53
2021/06/23 04:35:26;;;;;;;6.28;5.78;;;15.60;99.90;;;16.10;100.00;95201.00;2167084;57;26129;-52
2021/06/23 04:38:12;;;;;;;6.25;5.65;;;15.70;99.90;;;16.34;100.00;95205.00;2377209;56;27475;-52
2021/06/23 04:43:56;;;;;;;5.82;5.32;;;15.70;99.90;;;16.26;100.00;95183.00;2338948;56;33560;-52
2021/06/23 04:46:42;;;;;;;6.10;5.53;;;15.70;99.90;;;16.18;100.00;95190.00;2122350;57;26712;-52
2021/06/23 04:49:28;;;;;;;7.50;5.75;;;15.80;99.90;;;16.43;100.00;95194.00;2356118;57;26624;-53
2021/06/23 04:55:16;;;;;;;5.43;4.95;;;16.00;99.90;;;16.48;100.00;95164.00;2381561;55;33776;-53
2021/06/23 05:00:58;;;;;;;6.12;5.62;;;15.90;99.90;;;16.50;100.00;95178.00;2409570;54;34212;-52
2021/06/23 05:03:45;;;;;;;5.68;5.22;;;16.00;99.90;;;16.37;100.00;95202.00;2405405;55;27433;-52
2021/06/23 05:09:28;;;;;;;6.22;5.60;;;16.10;99.90;;;16.68;100.00;95189.00;2379400;55;34259;-53
2021/06/23 05:12:17;;;;;;;5.97;5.37;;;16.20;99.90;;;16.61;100.00;95207.00;2179366;58;27376;-52
2021/06/23 05:15:06;;;;;;;6.03;5.47;;;16.20;99.90;;;16.62;100.00;95213.00;2389196;56;26806;-52
2021/06/23 05:17:53;;;;;;;5.30;4.80;;;16.30;99.90;;;16.83;100.00;95216.00;2163248;56;27308;-52
2021/06/23 05:20:39;;;;;;;5.47;4.97;;;16.40;99.90;;;16.83;100.00;95223.00;2367325;56;27197;-52
2021/06/23 05:23:26;;;;;;;6.43;5.35;;;16.50;99.90;;;17.03;100.00;95218.00;2156964;56;26807;-52
2021/06/23 05:26:12;;;;;;;4.15;3.85;;;16.60;99.90;;;17.10;100.00;95215.00;2156769;56;26748;-52
2021/06/23 05:31:55;;;;;;;4.80;4.40;;;16.80;99.90;;;17.42;100.00;95194.00;2450013;54;34554;-52
2021/06/23 05:34:42;;;;;;;4.78;4.32;;;17.00;99.90;;;17.49;100.00;95201.00;2185777;54;26791;-52
2021/06/23 05:37:29;;;;;;;5.15;4.10;;;17.10;99.90;;;17.54;100.00;95208.00;2431912;55;26835;-52
2021/06/23 05:40:16;;;;;;;4.65;4.30;;;17.10;99.90;;;17.57;100.00;95215.00;2215953;55;26903;-52
2021/06/23 05:43:02;;;;;;;4.85;4.10;;;17.00;99.90;;;17.51;100.00;95208.00;2439091;55;26961;-52
2021/06/23 05:45:49;;;;;;;4.75;4.22;;;17.20;99.90;;;17.67;100.00;95219.00;2215301;55;26731;-53
2021/06/23 05:48:35;;;;;;;5.57;4.40;;;17.30;99.90;;;17.63;100.00;95218.00;2213283;55;26890;-52
2021/06/23 05:51:21;;;;;;;4.37;4.00;;;17.30;99.90;;;17.78;100.00;95213.00;2434835;55;26892;-52
2021/06/23 05:54:08;;;;;;;4.93;3.80;;;17.40;99.90;;;17.87;100.00;95212.00;2212355;55;26145;-53
2021/06/23 05:59:52;;;;;;;4.40;4.00;;;17.50;99.90;;;18.19;100.00;95205.00;2419178;54;34118;-52
2021/06/23 06:02:38;;;;;;;5.10;3.62;;;17.70;99.90;;;18.16;100.00;95215.00;2182383;54;26889;-53
2021/06/23 06:05:24;;;;;;;5.82;4.97;;;17.80;99.90;;;18.43;100.00;95215.00;2187459;55;26692;-52
2021/06/23 06:08:11;;;;;;;6.78;4.30;;;17.90;99.90;;;18.62;100.00;95225.00;2429107;55;27214;-52
2021/06/23 06:10:58;;;;;;;5.40;3.80;;;18.20;99.90;;;18.95;100.00;95213.00;2212638;55;26893;-53
2021/06/23 06:13:44;;;;;;;6.32;4.10;;;18.30;99.90;;;19.03;100.00;95215.00;2434401;55;27780;-52
2021/06/23 06:16:32;;;;;;;3.87;3.58;;;18.20;99.90;;;18.63;100.00;95215.00;2199957;55;26802;-53
2021/06/23 06:22:15;;;;;;;6.07;4.93;;;17.80;99.90;;;18.41;100.00;95227.00;2399616;55;34256;-52
2021/06/23 06:25:04;;;;;;;5.30;4.80;;;18.00;99.90;;;18.52;100.00;95226.00;2154778;57;26852;-52
2021/06/23 06:27:50;;;;;;;6.95;4.93;;;18.00;99.90;;;18.52;100.00;95230.00;2384689;56;26620;-52
2021/06/23 06:30:36;;;;;;;5.18;4.62;;;18.20;99.90;;;18.90;100.00;95236.00;2152365;56;26647;-52
2021/06/23 06:33:23;;;;;;;5.85;4.18;;;18.40;99.90;;;19.12;100.00;95226.00;2170749;55;26732;-52
2021/06/23 06:36:09;;;;;;;4.37;4.00;;;18.70;99.90;;;19.45;100.00;95240.00;2376599;55;27179;-52
2021/06/23 06:38:56;;;;;;;4.30;3.97;;;18.70;99.90;;;19.38;100.00;95224.00;2177598;56;26709;-52
2021/06/23 06:41:43;;;;;;;4.93;4.07;;;18.70;99.90;;;19.32;100.00;95227.00;2392251;55;26118;-53
2021/06/23 06:44:31;;;;;;;4.45;4.07;;;18.70;99.90;;;19.35;100.00;95224.00;2182054;56;26675;-54
2021/06/23 06:47:17;;;;;;;5.18;3.62;;;18.80;99.90;;;19.40;100.00;95227.00;2406533;55;26564;-52
2021/06/23 06:53:01;;;;;;;3.67;3.37;;;18.80;99.90;;;19.52;100.00;95215.00;2372985;55;34420;-52
2021/06/23 06:55:48;;;;;;;3.45;2.97;;;18.70;99.90;;;19.25;100.00;95224.00;2156142;58;26272;-53
2021/06/23 06:58:34;;;;;;;4.18;3.80;;;18.50;99.90;;;19.08;100.00;95228.00;2370153;56;27338;-52
2021/06/23 07:01:21;;;;;;;4.12;3.78;;;18.40;99.90;;;18.92;100.00;95226.00;2158571;58;26679;-53
2021/06/23 07:04:07;;;;;;;3.53;3.22;;;18.40;99.90;;;18.98;100.00;95223.00;2373117;56;27060;-52
2021/06/23 07:06:54;;;;;;;3.58;3.28;;;18.50;99.90;;;19.03;100.00;95220.00;2162992;57;26685;-52
2021/06/23 07:09:40;;;;;;;6.62;3.67;;;18.50;99.90;;;19.24;100.00;95227.00;2376161;56;26647;-52
2021/06/23 07:12:26;;;;;;;3.92;3.60;;;18.80;99.90;;;19.58;100.00;95224.00;2375984;56;27560;-53
2021/06/23 07:15:16;;;;;;;4.00;3.70;;;19.00;99.90;;;19.72;100.00;95219.00;2163353;57;26396;-53
2021/06/23 07:20:59;;;;;;;4.12;3.83;;;19.30;99.90;;;20.07;100.00;95208.00;2356010;56;34230;-52
2021/06/23 07:23:46;;;;;;;3.72;3.42;;;19.50;99.90;;;20.28;100.00;95204.00;2149679;57;27001;-52
2021/06/23 07:26:33;;;;;;;3.72;3.40;;;19.80;99.90;;;20.50;100.00;95201.00;2400838;56;26622;-52
2021/06/23 07:29:19;;;;;;;4.30;3.40;;;20.30;99.90;;;21.51;100.00;95204.00;2135993;57;26578;-53
2021/06/23 07:32:09;;;;;;;5.07;3.60;;;21.00;99.90;;;22.20;100.00;95197.00;2136388;57;27087;-53
2021/06/23 07:38:07;;;;;;;5.87;3.45;;;21.70;99.90;;;22.54;100.00;95185.00;2163380;56;26107;-53
2021/06/23 07:40:59;;;;;;;5.53;4.10;;;22.40;99.90;;;23.99;100.00;95177.00;2376166;56;26830;-52
2021/06/23 07:43:46;;;;;;;4.60;4.20;;;22.50;99.90;;;23.43;100.00;95174.00;2178706;57;26940;-53
2021/06/23 07:46:36;;;;;;;4.53;3.67;;;23.00;99.90;;;24.64;100.00;95171.00;2400479;56;26749;-53
2021/06/23 07:49:23;;;;;;;4.60;3.72;;;24.20;99.90;;;25.98;100.00;95155.00;2181770;56;26763;-53
2021/06/23 07:52:15;;;;;;;5.95;3.30;;;25.00;99.90;;;26.79;100.00;95161.00;2182930;57;26671;-53
2021/06/23 07:55:07;;;;;;;5.53;3.67;;;26.00;99.90;;;27.80;100.00;95151.00;2182989;56;26701;-53
2021/06/23 08:10:14;;;;;;;3.60;3.30;;;28.00;99.90;;;30.45;100.00;95150.00;2435197;55;27236;-51
2021/06/23 08:13:00;;;;;;;3.72;3.03;;;27.20;99.90;;;28.30;100.00;95150.00;2212922;55;26832;-51
2021/06/23 08:15:49;;;;;;;3.92;3.10;;;26.60;99.90;;;27.28;100.00;95151.00;2213034;55;26840;-51
2021/06/23 08:18:35;;;;;;;3.30;3.00;;;26.70;99.90;;;27.75;100.00;95145.00;2209082;55;26699;-51
2021/06/23 08:21:21;;;;;;;3.80;3.30;;;27.80;99.90;;;29.26;100.00;95141.00;2217124;56;26845;-51
2021/06/23 08:24:09;;;;;;;3.92;2.87;;;28.30;99.90;;;29.55;100.00;95143.00;2407162;55;27318;-51
2021/06/23 08:26:55;;;;;;;3.33;3.03;;;27.50;99.90;;;28.96;100.00;95147.00;2188463;56;27198;-51
2021/06/23 08:29:41;;;;;;;3.60;3.10;;;28.10;99.90;;;29.50;100.00;95145.00;2425920;55;28426;-51
2021/06/23 08:32:28;;;;;;;4.10;3.08;;;29.10;99.90;;;30.69;100.00;95144.00;2202837;56;27256;-51
2021/06/23 08:35:15;;;;;;;3.05;2.80;;;28.20;99.90;;;29.02;100.00;95135.00;2421293;55;26658;-51
2021/06/23 08:41:03;;;;;;;4.32;2.80;;;29.00;99.90;;;31.06;100.00;95135.00;2364654;55;34278;-52
2021/06/23 08:46:48;;;;;;;3.35;2.95;;;28.60;99.90;;;28.06;100.00;95141.00;2422227;54;33870;-53
2021/06/23 08:49:37;;;;;;;6.22;3.15;;;28.10;99.90;;;29.51;100.00;95134.00;2407891;55;27168;-53
2021/06/23 08:52:24;;;;;;;2.92;2.62;;;29.10;99.90;;;30.25;100.00;95134.00;2206892;56;25613;-53
2021/06/23 08:55:18;;;;;;;2.72;2.53;;;27.90;99.90;;;29.04;100.00;95134.00;2433292;55;26315;-51
2021/06/23 08:58:06;;;;;;;2.55;2.35;;;28.20;99.90;;;29.62;100.00;95130.00;2432795;55;25661;-51
2021/06/23 09:00:53;;;;;;;2.90;2.70;;;28.80;99.90;;;29.73;100.00;95126.00;2206746;56;27211;-51
2021/06/23 09:07:04;;;;;;;3.40;3.10;;;27.30;99.90;;;27.97;100.00;95126.00;2421647;55;34044;-52
2021/06/23 09:09:50;;;;;;;5.50;3.58;;;26.40;99.90;;;26.68;100.00;95133.00;2168366;56;26663;-51
2021/06/23 09:12:36;;;;;;;4.43;3.20;;;26.50;99.90;;;27.26;100.00;95118.00;2378596;55;27388;-51
2021/06/23 09:15:40;;;;;;;3.10;2.90;;;27.90;99.90;;;29.54;100.00;95120.00;2184713;56;26875;-50
2021/06/23 09:18:32;;;;;;;5.57;3.60;;;26.90;99.90;;;28.12;100.00;95129.00;2172039;56;26177;-50
2021/06/23 09:21:20;;;;;;;4.25;3.20;;;26.90;99.90;;;28.53;100.00;95128.00;2386729;55;26728;-51
2021/06/23 09:24:08;;;;;;;3.85;3.55;;;28.00;99.90;;;29.61;100.00;95120.00;2172047;56;26735;-51
2021/06/23 09:26:54;;;;;;;4.75;3.47;;;28.80;99.90;;;29.79;100.00;95114.00;2173680;56;27174;-51
2021/06/23 09:29:40;;;;;;;4.18;3.78;;;29.20;99.90;;;29.60;100.00;95116.00;2173875;56;25794;-51
2021/06/23 09:32:27;;;;;;;3.50;3.20;;;29.80;99.90;;;30.39;100.00;95109.00;2176949;56;26698;-51
2021/06/23 09:35:28;;;;;;;3.72;3.30;;;31.10;99.90;;;32.51;95.85;95106.00;2178811;55;25584;-51
2021/06/23 09:38:38;;;;;;;3.80;3.50;;;31.50;99.90;;;33.29;96.55;95105.00;2396200;55;26288;-51
2021/06/23 09:41:28;;;;;;;4.15;3.67;;;30.90;99.90;;;30.84;97.82;95109.00;2182281;55;25978;-51
2021/06/23 09:44:16;;;;;;;3.75;3.40;;;28.80;99.90;;;27.98;100.00;95112.00;2188052;55;26879;-50
2021/06/23 09:50:05;;;;;;;3.65;3.30;;;28.70;99.90;;;29.56;100.00;95104.00;2413122;54;32739;-51
2021/06/23 09:52:56;;;;;;;3.45;3.25;;;29.90;99.90;;;32.11;100.00;95113.00;2177952;56;26875;-51
2021/06/23 09:55:45;;;;;;;4.30;3.60;;;30.10;99.90;;;31.56;100.00;95109.00;2176522;56;26718;-52
2021/06/23 09:58:38;;;;;;;3.78;3.30;;;28.40;99.90;;;28.42;100.00;95103.00;2394053;55;26840;-50
2021/06/23 10:01:26;;;;;;;3.97;3.50;;;27.40;99.90;;;27.93;100.00;95113.00;2406468;55;26851;-50
2021/06/23 10:04:12;;;;;;;4.18;3.28;;;26.60;99.90;;;27.03;100.00;95108.00;2425296;55;26694;-51
2021/06/23 10:06:59;;;;;;;4.55;3.70;;;27.70;99.90;;;28.86;100.00;95095.00;2209949;55;26628;-50
2021/06/23 10:09:52;;;;;;;4.35;3.58;;;29.10;99.90;;;30.81;100.00;95098.00;2209702;56;27195;-51
2021/06/23 10:12:39;;;;;;;3.50;3.20;;;29.90;99.90;;;31.09;100.00;95096.00;2211052;55;26719;-53
2021/06/23 10:15:25;;;;;;;3.78;3.25;;;29.60;99.90;;;30.13;100.00;95092.00;2208401;55;25629;-51
2021/06/23 10:18:13;;;;;;;3.87;3.58;;;28.60;99.90;;;28.53;100.00;95089.00;2207395;56;25592;-51
2021/06/23 10:21:01;;;;;;;3.67;3.25;;;27.70;99.90;;;27.59;100.00;95092.00;2208719;56;26885;-50
2021/06/23 10:23:49;;;;;;;3.87;3.30;;;27.70;99.90;;;27.77;100.00;95083.00;2207714;56;27089;-50
2021/06/23 10:26:38;;;;;;;3.58;3.17;;;28.10;99.90;;;28.71;100.00;95068.00;2207649;56;26776;-51
2021/06/23 10:29:29;;;;;;;4.65;4.07;;;28.70;99.90;;;29.70;100.00;95084.00;2208148;56;25641;-51
2021/06/23 10:32:16;;;;;;;3.70;3.40;;;28.30;99.90;;;28.43;100.00;95073.00;2206981;56;25743;-51
2021/06/23 10:35:03;;;;;;;4.15;3.58;;;27.90;99.90;;;28.30;100.00;95079.00;2390560;56;26615;-51
2021/06/23 10:37:54;;;;;;;4.43;3.97;;;27.40;99.90;;;27.54;100.00;95076.00;2184166;56;26881;-51
2021/06/23 10:40:41;;;;;;;4.72;3.58;;;26.30;99.90;;;25.82;100.00;95079.00;2408100;55;26770;-51
2021/06/23 10:43:28;;;;;;;3.90;3.60;;;26.80;99.90;;;27.55;100.00;95066.00;2407120;55;26760;-51
2021/06/23 10:49:46;;;;;;;4.15;3.75;;;27.40;99.90;;;27.94;100.00;95058.00;2401182;55;33716;-52
2021/06/23 10:52:41;;;;;;;4.03;3.62;;;26.80;99.90;;;26.92;100.00;95063.00;2188020;56;27354;-53
2021/06/23 10:58:43;;;;;;;4.45;3.87;;;26.00;99.90;;;26.09;100.00;95070.00;2465816;53;34106;-52
2021/06/23 11:01:30;;;;;;;4.30;3.90;;;25.70;99.90;;;26.13;100.00;95069.00;2284749;54;26921;-52
2021/06/23 11:04:16;;;;;;;4.20;3.70;;;25.60;99.90;;;25.72;100.00;95060.00;2535828;53;26825;-52
2021/06/23 11:07:04;;;;;;;4.90;3.78;;;26.40;99.90;;;27.02;100.00;95066.00;2293984;54;26779;-52
2021/06/23 11:10:17;;;;;;;4.03;3.55;;;27.50;99.90;;;28.50;100.00;95059.00;2535681;52;27305;-52
2021/06/23 11:13:06;;;;;;;4.65;3.47;;;27.50;99.90;;;27.77;100.00;95051.00;2285282;53;25633;-52
2021/06/23 11:15:54;;;;;;;4.07;3.78;;;27.80;99.90;;;28.10;100.00;95055.00;2521196;53;26853;-50
2021/06/23 11:18:41;;;;;;;5.82;3.95;;;28.30;99.90;;;28.46;100.00;95044.00;2253141;53;27082;-53
2021/06/23 11:21:28;;;;;;;5.10;3.70;;;28.70;99.90;;;29.26;100.00;95052.00;2245868;55;26947;-49
2021/06/23 11:24:16;;;;;;;4.20;3.80;;;28.80;99.90;;;28.54;100.00;95055.00;2470405;54;26739;-51
2021/06/23 11:27:05;;;;;;;5.22;3.97;;;29.00;99.90;;;29.04;100.00;95056.00;2247586;53;27186;-51
2021/06/23 11:29:51;;;;;;;5.53;3.83;;;28.00;99.90;;;27.69;100.00;95063.00;2504314;53;27202;-51
2021/06/23 11:32:37;;;;;;;5.05;4.25;;;27.10;99.90;;;26.81;100.00;95059.00;2503015;53;25217;-50
2021/06/23 11:35:24;;;;;;;5.35;4.45;;;27.00;99.90;;;27.16;100.00;95058.00;2269491;53;26689;-50
2021/06/23 11:38:10;;;;;;;4.28;3.90;;;26.90;99.90;;;26.82;100.00;95057.00;2269447;53;26591;-50
2021/06/23 11:40:58;;;;;;;5.72;4.07;;;27.20;99.90;;;27.37;100.00;95062.00;2269623;53;27626;-50
2021/06/23 11:43:45;;;;;;;6.95;4.00;;;27.30;99.90;;;27.66;100.00;95060.00;2270103;53;27326;-50
2021/06/23 11:46:31;;;;;;;4.82;4.05;;;27.60;99.90;;;28.14;100.00;95066.00;2269363;53;27051;-51
2021/06/23 11:49:18;;;;;;;4.20;3.80;;;27.40;99.90;;;27.85;100.00;95060.00;2277244;54;27074;-50
2021/06/23 11:52:07;;;;;;;5.53;4.45;;;26.70;99.90;;;26.83;100.00;95064.00;2280583;53;25068;-49
2021/06/23 11:54:54;;;;;;;5.30;4.68;;;26.30;99.90;;;26.69;100.00;95077.00;2285126;53;26199;-50
2021/06/23 11:57:40;;;;;;;4.78;4.32;;;26.00;99.90;;;26.14;100.00;95062.00;2522294;53;26558;-50
2021/06/23 12:00:29;;;;;;;4.90;4.25;;;26.80;99.90;;;27.19;100.00;95058.00;2273515;53;26752;-50
2021/06/23 12:03:17;;;;;;;4.85;4.37;;;27.00;99.90;;;27.33;100.00;95058.00;2274976;53;26729;-50
2021/06/23 12:06:06;;;;;;;5.18;4.40;;;27.70;99.90;;;28.26;100.00;95051.00;2299353;53;27311;-51
2021/06/23 12:08:52;;;;;;;5.00;4.60;;;28.20;99.90;;;28.83;100.00;95051.00;2303313;53;26682;-51
2021/06/23 12:11:38;;;;;;;6.40;5.18;;;27.20;99.90;;;26.82;100.00;95052.00;2302924;53;27287;-50
2021/06/23 12:14:24;;;;;;;5.75;4.95;;;26.10;99.90;;;25.77;100.00;95056.00;2317021;52;26787;-50
2021/06/23 12:17:11;;;;;;;6.15;5.30;;;25.40;99.90;;;25.22;100.00;95051.00;2314355;53;26719;-50
2021/06/23 12:19:57;;;;;;;5.93;5.32;;;25.20;99.90;;;25.52;100.00;95049.00;2313190;53;26838;-50
2021/06/23 12:22:44;;;;;;;6.55;5.65;;;25.90;99.90;;;26.29;100.00;95054.00;2308858;53;26111;-50
2021/06/23 12:28:30;;;;;;;6.75;5.53;;;27.10;99.90;;;27.51;100.00;95045.00;2385684;55;34406;-53
2021/06/23 12:31:16;;;;;;;6.12;5.50;;;27.20;99.90;;;27.38;100.00;95044.00;2176443;55;26948;-53
2021/06/23 12:34:08;;;;;;;5.87;5.15;;;27.50;99.90;;;27.66;100.00;95046.00;2200696;56;26907;-53
2021/06/23 12:36:54;;;;;;;6.87;5.00;;;27.60;99.90;;;27.79;100.00;95043.00;2199680;56;25605;-53
2021/06/23 12:39:41;;;;;;;5.20;4.57;;;27.40;99.90;;;27.34;100.00;95035.00;2195120;56;26927;-52
2021/06/23 12:42:27;;;;;;;4.87;4.30;;;27.30;99.90;;;27.20;100.00;95030.00;2191648;56;26760;-52
2021/06/23 12:45:15;;;;;;;5.65;4.75;;;27.20;99.90;;;27.32;100.00;95035.00;2196109;55;26112;-52
2021/06/23 12:48:05;;;;;;;5.28;4.20;;;27.40;99.90;;;27.52;100.00;95033.00;2196088;56;27395;-52
2021/06/23 12:50:52;;;;;;;6.65;4.90;;;27.40;99.90;;;27.30;100.00;95021.00;2177390;55;27946;-52
2021/06/23 12:53:38;;;;;;;6.95;4.97;;;27.30;99.90;;;27.58;100.00;95040.00;2188083;56;26677;-52
2021/06/23 12:56:25;;;;;;;4.87;4.45;;;27.60;99.90;;;27.82;100.00;95037.00;2213059;55;26735;-53
2021/06/23 12:59:11;;;;;;;5.37;4.87;;;27.80;99.90;;;27.95;100.00;95038.00;2212664;55;26716;-52
2021/06/23 13:01:58;;;;;;;6.35;5.20;;;27.70;99.90;;;27.87;100.00;95031.00;2213173;55;27236;-53
2021/06/23 13:07:44;;;;;;;5.20;4.65;;;27.50;99.90;;;27.19;100.00;95020.00;2409858;55;34349;-52
2021/06/23 13:10:30;;;;;;;5.10;3.95;;;27.30;99.90;;;27.12;100.00;95011.00;2190348;56;26762;-52
2021/06/23 13:13:17;;;;;;;5.43;4.82;;;27.40;99.90;;;27.53;100.00;95009.00;2419260;55;26905;-52
2021/06/23 13:16:04;;;;;;;4.93;4.43;;;27.20;99.90;;;27.15;100.00;95009.00;2193234;55;26739;-52
2021/06/23 13:18:53;;;;;;;5.50;4.43;;;27.20;99.90;;;27.36;100.00;95007.00;2192476;57;27162;-52
2021/06/23 13:21:39;;;;;;;5.85;4.28;;;27.40;99.90;;;27.37;100.00;95000.00;2418376;55;26785;-52
2021/06/23 13:24:25;;;;;;;4.43;4.03;;;27.60;99.90;;;27.86;100.00;95011.00;2414898;55;26680;-52
2021/06/23 13:27:13;;;;;;;4.85;4.35;;;27.70;99.90;;;28.03;100.00;95006.00;2211716;55;27083;-52
2021/06/23 13:30:00;;;;;;;4.70;4.10;;;27.70;99.90;;;27.55;100.00;95002.00;2211654;55;27143;-52
2021/06/23 13:32:47;;;;;;;4.97;4.57;;;27.60;99.90;;;27.69;100.00;95005.00;2436474;55;26784;-52
2021/06/23 13:35:33;;;;;;;5.00;4.47;;;27.70;99.90;;;27.73;100.00;95006.00;2212486;55;27166;-52
2021/06/23 13:38:22;;;;;;;7.22;5.20;;;27.00;99.90;;;27.52;100.00;95014.00;2436704;55;27228;-52